sensor_id;sensor_type;location;lat;lon;timestamp;temperature;humidity
1381;DHT22;684;48.342;10.096;2022-07-29T00:01:16;20.90;37.10
1381;DHT22;684;48.342;10.096;2022-07-29T00:03:43;20.90;37.00
1381;DHT22;684;48.342;10.096;2022-07-29T00:06:10;20.90;37.00
1381;DHT22;684;48.342;10.096;2022-07-29T00:08:37;20.90;37.10
1381;DHT22;684;48.342;10.096;2022-07-29T00:11:04;21.00;37.30
1381;DHT22;684;48.342;10.096;2022-07-29T00:13:31;21.00;37.80
1381;DHT22;684;48.342;10.096;2022-07-29T00:15:57;21.00;37.20
1381;DHT22;684;48.342;10.096;2022-07-29T00:18:26;21.00;37.50
1381;DHT22;684;48.342;10.096;2022-07-29T00:20:53;21.00;37.30
1381;DHT22;684;48.342;10.096;2022-07-29T00:23:20;20.90;37.30
1381;DHT22;684;48.342;10.096;2022-07-29T00:25:46;20.90;37.40
1381;DHT22;684;48.342;10.096;2022-07-29T00:28:13;20.80;37.20
1381;DHT22;684;48.342;10.096;2022-07-29T00:30:40;20.80;37.60
1381;DHT22;684;48.342;10.096;2022-07-29T00:33:08;20.80;37.60
1381;DHT22;684;48.342;10.096;2022-07-29T00:35:36;20.80;37.90
1381;DHT22;684;48.342;10.096;2022-07-29T00:38:12;20.70;38.00
1381;DHT22;684;48.342;10.096;2022-07-29T00:40:39;20.70;37.90
1381;DHT22;684;48.342;10.096;2022-07-29T00:43:06;20.70;38.10
1381;DHT22;684;48.342;10.096;2022-07-29T00:45:33;20.70;37.90
1381;DHT22;684;48.342;10.096;2022-07-29T00:48:00;20.70;38.20
1381;DHT22;684;48.342;10.096;2022-07-29T00:50:28;20.60;37.90
1381;DHT22;684;48.342;10.096;2022-07-29T00:52:56;20.70;38.20
1381;DHT22;684;48.342;10.096;2022-07-29T00:55:23;20.60;38.00
1381;DHT22;684;48.342;10.096;2022-07-29T00:57:50;20.60;37.90
1381;DHT22;684;48.342;10.096;2022-07-29T01:00:19;20.60;37.90
1381;DHT22;684;48.342;10.096;2022-07-29T01:02:46;20.50;37.90
1381;DHT22;684;48.342;10.096;2022-07-29T01:05:15;20.40;38.20
1381;DHT22;684;48.342;10.096;2022-07-29T01:07:42;20.40;38.30
1381;DHT22;684;48.342;10.096;2022-07-29T01:10:13;20.40;38.80
1381;DHT22;684;48.342;10.096;2022-07-29T01:12:42;20.30;38.70
1381;DHT22;684;48.342;10.096;2022-07-29T01:15:09;20.30;39.00
1381;DHT22;684;48.342;10.096;2022-07-29T01:17:40;20.30;39.70
1381;DHT22;684;48.342;10.096;2022-07-29T01:20:14;20.20;39.70
1381;DHT22;684;48.342;10.096;2022-07-29T01:23:08;20.20;39.70
1381;DHT22;684;48.342;10.096;2022-07-29T01:25:48;20.20;40.00
1381;DHT22;684;48.342;10.096;2022-07-29T01:28:44;20.10;39.90
1381;DHT22;684;48.342;10.096;2022-07-29T01:31:16;20.10;40.40
1381;DHT22;684;48.342;10.096;2022-07-29T01:33:45;20.10;39.90
1381;DHT22;684;48.342;10.096;2022-07-29T01:36:19;20.10;40.20
1381;DHT22;684;48.342;10.096;2022-07-29T01:38:54;20.10;40.70
1381;DHT22;684;48.342;10.096;2022-07-29T01:41:25;20.10;40.20
1381;DHT22;684;48.342;10.096;2022-07-29T01:43:57;20.10;40.00
1381;DHT22;684;48.342;10.096;2022-07-29T01:46:29;20.10;40.00
1381;DHT22;684;48.342;10.096;2022-07-29T01:49:02;20.10;40.00
1381;DHT22;684;48.342;10.096;2022-07-29T01:51:35;20.20;40.30
1381;DHT22;684;48.342;10.096;2022-07-29T01:54:10;20.20;40.30
1381;DHT22;684;48.342;10.096;2022-07-29T01:56:39;20.20;39.90
1381;DHT22;684;48.342;10.096;2022-07-29T01:59:08;20.20;40.30
1381;DHT22;684;48.342;10.096;2022-07-29T02:01:37;20.20;40.10
1381;DHT22;684;48.342;10.096;2022-07-29T02:04:07;20.30;39.90
1381;DHT22;684;48.342;10.096;2022-07-29T02:06:38;20.30;39.80
1381;DHT22;684;48.342;10.096;2022-07-29T02:09:08;20.30;40.20
1381;DHT22;684;48.342;10.096;2022-07-29T02:11:37;20.20;40.80
1381;DHT22;684;48.342;10.096;2022-07-29T02:14:06;20.20;40.00
1381;DHT22;684;48.342;10.096;2022-07-29T02:16:34;20.20;40.00
1381;DHT22;684;48.342;10.096;2022-07-29T02:19:04;20.20;40.00
1381;DHT22;684;48.342;10.096;2022-07-29T02:21:32;20.20;40.10
1381;DHT22;684;48.342;10.096;2022-07-29T02:24:01;20.20;39.90
1381;DHT22;684;48.342;10.096;2022-07-29T02:26:29;20.20;39.60
1381;DHT22;684;48.342;10.096;2022-07-29T02:28:57;20.10;39.60
1381;DHT22;684;48.342;10.096;2022-07-29T02:31:30;20.10;39.80
1381;DHT22;684;48.342;10.096;2022-07-29T02:33:59;20.00;39.70
1381;DHT22;684;48.342;10.096;2022-07-29T02:36:27;20.00;39.90
1381;DHT22;684;48.342;10.096;2022-07-29T02:38:55;20.00;39.90
1381;DHT22;684;48.342;10.096;2022-07-29T02:41:28;19.90;40.00
1381;DHT22;684;48.342;10.096;2022-07-29T02:43:57;20.00;40.00
1381;DHT22;684;48.342;10.096;2022-07-29T02:46:31;19.90;40.50
1381;DHT22;684;48.342;10.096;2022-07-29T02:49:04;19.80;40.30
1381;DHT22;684;48.342;10.096;2022-07-29T02:51:40;19.80;40.30
1381;DHT22;684;48.342;10.096;2022-07-29T02:54:09;19.80;40.30
1381;DHT22;684;48.342;10.096;2022-07-29T02:56:39;19.70;40.40
1381;DHT22;684;48.342;10.096;2022-07-29T02:59:09;19.70;40.30
1381;DHT22;684;48.342;10.096;2022-07-29T03:01:41;19.70;40.00
1381;DHT22;684;48.342;10.096;2022-07-29T03:04:09;19.70;39.90
1381;DHT22;684;48.342;10.096;2022-07-29T03:06:38;19.60;39.90
1381;DHT22;684;48.342;10.096;2022-07-29T03:09:06;19.60;39.80
1381;DHT22;684;48.342;10.096;2022-07-29T03:11:34;19.60;39.70
1381;DHT22;684;48.342;10.096;2022-07-29T03:14:02;19.60;39.70
1381;DHT22;684;48.342;10.096;2022-07-29T03:16:30;19.60;40.00
1381;DHT22;684;48.342;10.096;2022-07-29T03:19:00;19.50;40.00
1381;DHT22;684;48.342;10.096;2022-07-29T03:21:27;19.50;40.10
1381;DHT22;684;48.342;10.096;2022-07-29T03:23:54;19.50;40.30
1381;DHT22;684;48.342;10.096;2022-07-29T03:26:21;19.50;39.70
1381;DHT22;684;48.342;10.096;2022-07-29T03:28:48;19.50;39.70
1381;DHT22;684;48.342;10.096;2022-07-29T03:31:14;19.40;39.80
1381;DHT22;684;48.342;10.096;2022-07-29T03:33:41;19.40;39.70
1381;DHT22;684;48.342;10.096;2022-07-29T03:36:09;19.30;39.70
1381;DHT22;684;48.342;10.096;2022-07-29T03:38:36;19.30;39.90
1381;DHT22;684;48.342;10.096;2022-07-29T03:41:07;19.30;40.10
1381;DHT22;684;48.342;10.096;2022-07-29T03:43:37;19.30;40.20
1381;DHT22;684;48.342;10.096;2022-07-29T03:46:06;19.20;40.10
1381;DHT22;684;48.342;10.096;2022-07-29T03:48:36;19.20;39.90
1381;DHT22;684;48.342;10.096;2022-07-29T03:51:03;19.20;39.70
1381;DHT22;684;48.342;10.096;2022-07-29T03:53:32;19.20;40.00
1381;DHT22;684;48.342;10.096;2022-07-29T03:56:02;19.20;40.20
1381;DHT22;684;48.342;10.096;2022-07-29T03:58:30;19.20;40.10
1381;DHT22;684;48.342;10.096;2022-07-29T04:00:58;19.20;40.30
1381;DHT22;684;48.342;10.096;2022-07-29T04:03:25;19.20;40.60
1381;DHT22;684;48.342;10.096;2022-07-29T04:06:00;19.20;40.60
1381;DHT22;684;48.342;10.096;2022-07-29T04:08:27;19.20;40.60
1381;DHT22;684;48.342;10.096;2022-07-29T04:10:55;19.20;40.70
1381;DHT22;684;48.342;10.096;2022-07-29T04:13:22;19.10;40.80
1381;DHT22;684;48.342;10.096;2022-07-29T04:15:48;19.20;40.50
1381;DHT22;684;48.342;10.096;2022-07-29T04:18:15;19.20;40.60
1381;DHT22;684;48.342;10.096;2022-07-29T04:20:42;19.20;40.70
1381;DHT22;684;48.342;10.096;2022-07-29T04:23:09;19.20;40.30
1381;DHT22;684;48.342;10.096;2022-07-29T04:25:37;19.20;40.30
1381;DHT22;684;48.342;10.096;2022-07-29T04:28:07;19.30;40.00
1381;DHT22;684;48.342;10.096;2022-07-29T04:30:35;19.30;40.30
1381;DHT22;684;48.342;10.096;2022-07-29T04:33:03;19.30;40.10
1381;DHT22;684;48.342;10.096;2022-07-29T04:35:33;19.40;40.20
1381;DHT22;684;48.342;10.096;2022-07-29T04:37:59;19.50;40.20
1381;DHT22;684;48.342;10.096;2022-07-29T04:40:27;19.50;39.70
1381;DHT22;684;48.342;10.096;2022-07-29T04:42:54;19.60;39.20
1381;DHT22;684;48.342;10.096;2022-07-29T04:45:22;19.70;39.20
1381;DHT22;684;48.342;10.096;2022-07-29T04:47:49;19.80;38.90
1381;DHT22;684;48.342;10.096;2022-07-29T04:50:16;19.90;38.80
1381;DHT22;684;48.342;10.096;2022-07-29T04:52:43;20.00;38.70
1381;DHT22;684;48.342;10.096;2022-07-29T04:55:09;20.10;38.50
1381;DHT22;684;48.342;10.096;2022-07-29T04:57:36;20.30;38.10
1381;DHT22;684;48.342;10.096;2022-07-29T05:00:04;20.50;37.60
1381;DHT22;684;48.342;10.096;2022-07-29T05:02:33;20.70;37.10
1381;DHT22;684;48.342;10.096;2022-07-29T05:04:59;21.00;36.50
1381;DHT22;684;48.342;10.096;2022-07-29T05:07:26;22.00;34.10
1381;DHT22;684;48.342;10.096;2022-07-29T05:09:53;22.90;30.70
1381;DHT22;684;48.342;10.096;2022-07-29T05:12:22;23.30;29.00
1381;DHT22;684;48.342;10.096;2022-07-29T05:14:49;23.60;27.70
1381;DHT22;684;48.342;10.096;2022-07-29T05:17:15;24.30;26.70
1381;DHT22;684;48.342;10.096;2022-07-29T05:19:43;25.60;22.80
1381;DHT22;684;48.342;10.096;2022-07-29T05:22:10;26.30;20.00
1381;DHT22;684;48.342;10.096;2022-07-29T05:24:37;26.70;18.90
1381;DHT22;684;48.342;10.096;2022-07-29T05:27:04;27.00;18.30
1381;DHT22;684;48.342;10.096;2022-07-29T05:29:30;27.40;16.80
1381;DHT22;684;48.342;10.096;2022-07-29T05:31:57;27.50;16.00
1381;DHT22;684;48.342;10.096;2022-07-29T05:34:24;27.30;15.40
1381;DHT22;684;48.342;10.096;2022-07-29T05:36:52;26.70;15.40
1381;DHT22;684;48.342;10.096;2022-07-29T05:39:19;26.20;16.10
1381;DHT22;684;48.342;10.096;2022-07-29T05:41:46;26.00;16.70
1381;DHT22;684;48.342;10.096;2022-07-29T05:44:13;25.90;16.40
1381;DHT22;684;48.342;10.096;2022-07-29T05:46:40;26.60;16.40
1381;DHT22;684;48.342;10.096;2022-07-29T05:49:07;27.90;14.00
1381;DHT22;684;48.342;10.096;2022-07-29T05:51:34;29.00;11.70
1381;DHT22;684;48.342;10.096;2022-07-29T05:54:02;29.10;10.90
1381;DHT22;684;48.342;10.096;2022-07-29T05:56:29;28.90;11.20
1381;DHT22;684;48.342;10.096;2022-07-29T05:58:55;28.70;10.90
1381;DHT22;684;48.342;10.096;2022-07-29T06:01:22;28.30;11.50
1381;DHT22;684;48.342;10.096;2022-07-29T06:03:49;28.10;11.90
1381;DHT22;684;48.342;10.096;2022-07-29T06:06:16;27.80;12.40
1381;DHT22;684;48.342;10.096;2022-07-29T06:08:43;27.50;13.30
1381;DHT22;684;48.342;10.096;2022-07-29T06:11:11;27.20;14.30
1381;DHT22;684;48.342;10.096;2022-07-29T06:13:37;27.00;14.40
1381;DHT22;684;48.342;10.096;2022-07-29T06:16:04;26.70;14.30
1381;DHT22;684;48.342;10.096;2022-07-29T06:18:31;26.40;14.50
1381;DHT22;684;48.342;10.096;2022-07-29T06:20:58;26.10;15.10
1381;DHT22;684;48.342;10.096;2022-07-29T06:23:25;25.90;15.40
1381;DHT22;684;48.342;10.096;2022-07-29T06:25:51;25.70;16.20
1381;DHT22;684;48.342;10.096;2022-07-29T06:28:20;25.50;17.40
1381;DHT22;684;48.342;10.096;2022-07-29T06:30:47;25.50;17.60
1381;DHT22;684;48.342;10.096;2022-07-29T06:33:16;25.60;17.50
1381;DHT22;684;48.342;10.096;2022-07-29T06:35:44;25.50;17.70
1381;DHT22;684;48.342;10.096;2022-07-29T06:38:13;25.60;17.80
1381;DHT22;684;48.342;10.096;2022-07-29T06:40:41;25.70;17.40
1381;DHT22;684;48.342;10.096;2022-07-29T06:43:28;26.00;17.00
1381;DHT22;684;48.342;10.096;2022-07-29T06:45:58;26.30;16.60
1381;DHT22;684;48.342;10.096;2022-07-29T06:48:25;26.50;15.80
1381;DHT22;684;48.342;10.096;2022-07-29T06:50:52;26.60;15.50
1381;DHT22;684;48.342;10.096;2022-07-29T06:53:19;26.60;15.30
1381;DHT22;684;48.342;10.096;2022-07-29T06:55:45;26.40;15.60
1381;DHT22;684;48.342;10.096;2022-07-29T06:58:12;26.20;15.90
1381;DHT22;684;48.342;10.096;2022-07-29T07:00:42;25.90;16.10
1381;DHT22;684;48.342;10.096;2022-07-29T07:03:09;25.70;16.50
1381;DHT22;684;48.342;10.096;2022-07-29T07:05:36;25.30;17.70
1381;DHT22;684;48.342;10.096;2022-07-29T07:08:03;25.00;18.40
1381;DHT22;684;48.342;10.096;2022-07-29T07:10:30;24.80;18.80
1381;DHT22;684;48.342;10.096;2022-07-29T07:12:57;24.50;19.20
1381;DHT22;684;48.342;10.096;2022-07-29T07:15:24;24.20;20.40
1381;DHT22;684;48.342;10.096;2022-07-29T07:17:52;24.10;20.90
1381;DHT22;684;48.342;10.096;2022-07-29T07:20:19;24.00;21.00
1381;DHT22;684;48.342;10.096;2022-07-29T07:22:46;23.80;22.20
1381;DHT22;684;48.342;10.096;2022-07-29T07:25:12;23.70;22.40
1381;DHT22;684;48.342;10.096;2022-07-29T07:27:39;23.60;22.90
1381;DHT22;684;48.342;10.096;2022-07-29T07:30:07;23.60;23.30
1381;DHT22;684;48.342;10.096;2022-07-29T07:32:34;23.60;23.50
1381;DHT22;684;48.342;10.096;2022-07-29T07:35:04;23.60;23.70
1381;DHT22;684;48.342;10.096;2022-07-29T07:37:31;23.60;23.70
1381;DHT22;684;48.342;10.096;2022-07-29T07:39:58;23.70;23.60
1381;DHT22;684;48.342;10.096;2022-07-29T07:42:25;23.80;24.20
1381;DHT22;684;48.342;10.096;2022-07-29T07:44:52;23.80;23.40
1381;DHT22;684;48.342;10.096;2022-07-29T07:47:19;23.90;23.30
1381;DHT22;684;48.342;10.096;2022-07-29T07:49:46;23.90;23.40
1381;DHT22;684;48.342;10.096;2022-07-29T07:52:15;23.90;23.40
1381;DHT22;684;48.342;10.096;2022-07-29T07:54:41;24.00;23.40
1381;DHT22;684;48.342;10.096;2022-07-29T07:57:09;23.90;23.50
1381;DHT22;684;48.342;10.096;2022-07-29T07:59:36;24.00;23.70
1381;DHT22;684;48.342;10.096;2022-07-29T08:02:03;24.10;22.80
1381;DHT22;684;48.342;10.096;2022-07-29T08:04:30;24.40;21.90
1381;DHT22;684;48.342;10.096;2022-07-29T08:06:57;24.80;21.70
1381;DHT22;684;48.342;10.096;2022-07-29T08:09:26;25.20;21.00
1381;DHT22;684;48.342;10.096;2022-07-29T08:11:53;25.60;19.20
1381;DHT22;684;48.342;10.096;2022-07-29T08:14:20;26.10;19.20
1381;DHT22;684;48.342;10.096;2022-07-29T08:16:47;27.70;16.60
1381;DHT22;684;48.342;10.096;2022-07-29T08:19:14;28.50;14.40
1381;DHT22;684;48.342;10.096;2022-07-29T08:21:41;29.00;13.80
1381;DHT22;684;48.342;10.096;2022-07-29T08:24:08;30.30;11.90
1381;DHT22;684;48.342;10.096;2022-07-29T08:27:05;31.60;9.80
1381;DHT22;684;48.342;10.096;2022-07-29T08:29:32;33.70;6.60
1381;DHT22;684;48.342;10.096;2022-07-29T08:31:59;35.80;3.40
1381;DHT22;684;48.342;10.096;2022-07-29T08:34:26;36.40;2.30
1381;DHT22;684;48.342;10.096;2022-07-29T08:36:53;35.70;1.90
1381;DHT22;684;48.342;10.096;2022-07-29T08:39:20;35.00;2.90
1381;DHT22;684;48.342;10.096;2022-07-29T08:41:47;34.90;2.70
1381;DHT22;684;48.342;10.096;2022-07-29T08:44:17;35.50;2.70
1381;DHT22;684;48.342;10.096;2022-07-29T08:46:44;37.30;1.00
1381;DHT22;684;48.342;10.096;2022-07-29T08:49:11;39.60;1.00
1381;DHT22;684;48.342;10.096;2022-07-29T08:51:39;39.40;1.00
1381;DHT22;684;48.342;10.096;2022-07-29T08:54:08;39.10;1.00
1381;DHT22;684;48.342;10.096;2022-07-29T08:56:35;40.40;1.00
1381;DHT22;684;48.342;10.096;2022-07-29T08:59:03;41.50;1.00
1381;DHT22;684;48.342;10.096;2022-07-29T09:01:33;43.50;1.00
1381;DHT22;684;48.342;10.096;2022-07-29T09:04:01;44.80;1.00
1381;DHT22;684;48.342;10.096;2022-07-29T09:06:32;45.50;1.00
1381;DHT22;684;48.342;10.096;2022-07-29T09:09:00;46.10;1.00
1381;DHT22;684;48.342;10.096;2022-07-29T09:11:27;46.20;1.00
1381;DHT22;684;48.342;10.096;2022-07-29T09:13:54;46.90;1.00
1381;DHT22;684;48.342;10.096;2022-07-29T09:16:21;47.70;1.00
1381;DHT22;684;48.342;10.096;2022-07-29T09:18:49;48.40;1.00
1381;DHT22;684;48.342;10.096;2022-07-29T09:21:17;48.50;1.00
1381;DHT22;684;48.342;10.096;2022-07-29T09:24:07;48.70;1.00
1381;DHT22;684;48.342;10.096;2022-07-29T09:26:35;47.00;1.00
1381;DHT22;684;48.342;10.096;2022-07-29T09:29:09;46.30;1.00
1381;DHT22;684;48.342;10.096;2022-07-29T09:31:37;45.70;1.00
1381;DHT22;684;48.342;10.096;2022-07-29T09:34:06;44.00;1.00
1381;DHT22;684;48.342;10.096;2022-07-29T09:36:39;45.40;1.00
1381;DHT22;684;48.342;10.096;2022-07-29T09:39:06;47.50;1.00
1381;DHT22;684;48.342;10.096;2022-07-29T09:41:45;49.10;1.00
1381;DHT22;684;48.342;10.096;2022-07-29T09:44:12;50.10;1.00
1381;DHT22;684;48.342;10.096;2022-07-29T09:46:40;50.10;1.00
1381;DHT22;684;48.342;10.096;2022-07-29T09:49:10;47.70;1.00
1381;DHT22;684;48.342;10.096;2022-07-29T09:51:38;45.30;1.00
1381;DHT22;684;48.342;10.096;2022-07-29T09:54:20;43.70;1.00
1381;DHT22;684;48.342;10.096;2022-07-29T09:56:47;42.60;1.00
1381;DHT22;684;48.342;10.096;2022-07-29T09:59:15;41.10;1.00
1381;DHT22;684;48.342;10.096;2022-07-29T10:01:42;40.10;1.00
1381;DHT22;684;48.342;10.096;2022-07-29T10:04:10;39.30;1.00
1381;DHT22;684;48.342;10.096;2022-07-29T10:06:55;39.10;1.00
1381;DHT22;684;48.342;10.096;2022-07-29T10:09:23;38.90;1.00
1381;DHT22;684;48.342;10.096;2022-07-29T10:12:04;38.10;1.00
1381;DHT22;684;48.342;10.096;2022-07-29T10:14:32;37.50;1.00
1381;DHT22;684;48.342;10.096;2022-07-29T10:17:00;37.00;1.00
1381;DHT22;684;48.342;10.096;2022-07-29T10:19:30;36.60;1.00
1381;DHT22;684;48.342;10.096;2022-07-29T10:21:57;36.20;1.00
1381;DHT22;684;48.342;10.096;2022-07-29T10:24:26;35.90;1.00
1381;DHT22;684;48.342;10.096;2022-07-29T10:26:54;35.50;1.00
1381;DHT22;684;48.342;10.096;2022-07-29T10:29:21;35.10;1.00
1381;DHT22;684;48.342;10.096;2022-07-29T10:31:53;34.60;1.00
1381;DHT22;684;48.342;10.096;2022-07-29T10:34:34;34.20;1.20
1381;DHT22;684;48.342;10.096;2022-07-29T10:37:08;33.70;2.00
1381;DHT22;684;48.342;10.096;2022-07-29T10:39:47;33.30;3.00
1381;DHT22;684;48.342;10.096;2022-07-29T10:42:18;32.90;3.40
1381;DHT22;684;48.342;10.096;2022-07-29T10:44:46;32.40;4.10
1381;DHT22;684;48.342;10.096;2022-07-29T10:47:20;32.00;4.60
1381;DHT22;684;48.342;10.096;2022-07-29T10:49:57;31.60;5.30
1381;DHT22;684;48.342;10.096;2022-07-29T10:52:24;31.20;5.90
1381;DHT22;684;48.342;10.096;2022-07-29T10:55:31;30.90;5.70
1381;DHT22;684;48.342;10.096;2022-07-29T10:58:12;30.50;6.00
1381;DHT22;684;48.342;10.096;2022-07-29T11:00:40;30.30;6.60
1381;DHT22;684;48.342;10.096;2022-07-29T11:03:06;30.10;6.60
1381;DHT22;684;48.342;10.096;2022-07-29T11:05:53;30.00;6.90
1381;DHT22;684;48.342;10.096;2022-07-29T11:08:24;29.90;7.10
1381;DHT22;684;48.342;10.096;2022-07-29T11:10:53;29.90;7.50
1381;DHT22;684;48.342;10.096;2022-07-29T11:13:50;30.10;7.40
1381;DHT22;684;48.342;10.096;2022-07-29T11:16:18;30.30;6.30
1381;DHT22;684;48.342;10.096;2022-07-29T11:19:20;30.30;6.50
1381;DHT22;684;48.342;10.096;2022-07-29T11:21:49;30.20;7.00
1381;DHT22;684;48.342;10.096;2022-07-29T11:24:19;30.10;6.70
1381;DHT22;684;48.342;10.096;2022-07-29T11:27:10;30.10;6.20
1381;DHT22;684;48.342;10.096;2022-07-29T11:29:40;30.00;5.50
1381;DHT22;684;48.342;10.096;2022-07-29T11:32:11;30.00;6.20
1381;DHT22;684;48.342;10.096;2022-07-29T11:34:39;30.10;7.00
1381;DHT22;684;48.342;10.096;2022-07-29T11:37:31;30.30;6.80
1381;DHT22;684;48.342;10.096;2022-07-29T11:42:49;30.40;5.30
1381;DHT22;684;48.342;10.096;2022-07-29T11:45:26;30.30;4.50
1381;DHT22;684;48.342;10.096;2022-07-29T11:47:58;30.20;4.90
1381;DHT22;684;48.342;10.096;2022-07-29T11:50:34;30.10;5.10
1381;DHT22;684;48.342;10.096;2022-07-29T11:53:05;29.90;5.50
1381;DHT22;684;48.342;10.096;2022-07-29T11:55:37;29.70;6.00
1381;DHT22;684;48.342;10.096;2022-07-29T11:58:04;29.50;6.30
1381;DHT22;684;48.342;10.096;2022-07-29T12:00:33;29.30;6.70
1381;DHT22;684;48.342;10.096;2022-07-29T12:03:02;29.00;7.30
1381;DHT22;684;48.342;10.096;2022-07-29T12:05:38;28.70;7.30
1381;DHT22;684;48.342;10.096;2022-07-29T12:08:09;28.50;7.70
1381;DHT22;684;48.342;10.096;2022-07-29T12:10:36;28.30;8.20
1381;DHT22;684;48.342;10.096;2022-07-29T12:13:04;28.20;8.80
1381;DHT22;684;48.342;10.096;2022-07-29T12:15:31;28.10;9.20
1381;DHT22;684;48.342;10.096;2022-07-29T12:17:58;28.00;9.60
1381;DHT22;684;48.342;10.096;2022-07-29T12:20:26;28.00;9.20
1381;DHT22;684;48.342;10.096;2022-07-29T12:22:54;28.00;9.40
1381;DHT22;684;48.342;10.096;2022-07-29T12:25:23;28.00;9.80
1381;DHT22;684;48.342;10.096;2022-07-29T12:27:59;27.90;9.50
1381;DHT22;684;48.342;10.096;2022-07-29T12:30:35;27.90;9.10
1381;DHT22;684;48.342;10.096;2022-07-29T12:33:10;27.80;9.00
1381;DHT22;684;48.342;10.096;2022-07-29T12:35:38;27.90;9.50
1381;DHT22;684;48.342;10.096;2022-07-29T12:38:05;28.00;9.80
1381;DHT22;684;48.342;10.096;2022-07-29T12:40:33;28.20;9.20
1381;DHT22;684;48.342;10.096;2022-07-29T12:43:08;28.50;8.70
1381;DHT22;684;48.342;10.096;2022-07-29T12:45:36;28.60;7.50
1381;DHT22;684;48.342;10.096;2022-07-29T12:48:03;28.70;7.60
1381;DHT22;684;48.342;10.096;2022-07-29T12:50:30;28.70;7.30
1381;DHT22;684;48.342;10.096;2022-07-29T12:53:09;28.70;7.80
1381;DHT22;684;48.342;10.096;2022-07-29T12:55:42;28.80;7.30
1381;DHT22;684;48.342;10.096;2022-07-29T12:58:10;28.80;8.10
1381;DHT22;684;48.342;10.096;2022-07-29T13:00:36;28.90;8.00
1381;DHT22;684;48.342;10.096;2022-07-29T13:03:03;29.10;7.10
1381;DHT22;684;48.342;10.096;2022-07-29T13:05:41;29.20;7.00
1381;DHT22;684;48.342;10.096;2022-07-29T13:08:12;29.30;7.40
1381;DHT22;684;48.342;10.096;2022-07-29T13:10:41;29.40;6.50
1381;DHT22;684;48.342;10.096;2022-07-29T13:13:10;29.40;6.50
1381;DHT22;684;48.342;10.096;2022-07-29T13:15:37;29.40;6.60
1381;DHT22;684;48.342;10.096;2022-07-29T13:18:05;29.40;7.10
1381;DHT22;684;48.342;10.096;2022-07-29T13:20:32;29.40;7.10
1381;DHT22;684;48.342;10.096;2022-07-29T13:23:00;29.40;7.50
1381;DHT22;684;48.342;10.096;2022-07-29T13:25:28;29.20;7.30
1381;DHT22;684;48.342;10.096;2022-07-29T13:27:57;29.10;7.00
1381;DHT22;684;48.342;10.096;2022-07-29T13:30:25;29.10;6.70
1381;DHT22;684;48.342;10.096;2022-07-29T13:32:52;29.10;6.10
1381;DHT22;684;48.342;10.096;2022-07-29T13:35:20;29.20;4.00
1381;DHT22;684;48.342;10.096;2022-07-29T13:37:47;29.20;5.10
1381;DHT22;684;48.342;10.096;2022-07-29T13:40:14;29.40;5.50
1381;DHT22;684;48.342;10.096;2022-07-29T13:42:41;29.50;5.90
1381;DHT22;684;48.342;10.096;2022-07-29T13:45:10;29.50;5.90
1381;DHT22;684;48.342;10.096;2022-07-29T13:47:37;29.60;5.80
1381;DHT22;684;48.342;10.096;2022-07-29T13:50:06;29.70;5.00
1381;DHT22;684;48.342;10.096;2022-07-29T13:52:33;29.80;6.60
1381;DHT22;684;48.342;10.096;2022-07-29T13:55:01;29.70;6.90
1381;DHT22;684;48.342;10.096;2022-07-29T13:57:28;29.50;7.00
1381;DHT22;684;48.342;10.096;2022-07-29T13:59:56;29.20;7.40
1381;DHT22;684;48.342;10.096;2022-07-29T14:02:24;29.10;6.90
1381;DHT22;684;48.342;10.096;2022-07-29T14:04:50;28.90;6.40
1381;DHT22;684;48.342;10.096;2022-07-29T14:07:17;28.70;5.80
1381;DHT22;684;48.342;10.096;2022-07-29T14:09:44;28.60;5.30
1381;DHT22;684;48.342;10.096;2022-07-29T14:12:11;28.40;5.50
1381;DHT22;684;48.342;10.096;2022-07-29T14:14:38;28.30;5.90
1381;DHT22;684;48.342;10.096;2022-07-29T14:17:05;28.40;5.80
1381;DHT22;684;48.342;10.096;2022-07-29T14:19:34;28.20;6.80
1381;DHT22;684;48.342;10.096;2022-07-29T14:22:03;28.00;7.40
1381;DHT22;684;48.342;10.096;2022-07-29T14:24:30;27.80;7.30
1381;DHT22;684;48.342;10.096;2022-07-29T14:26:57;27.70;6.70
1381;DHT22;684;48.342;10.096;2022-07-29T14:29:24;27.40;7.30
1381;DHT22;684;48.342;10.096;2022-07-29T14:31:51;27.10;9.10
1381;DHT22;684;48.342;10.096;2022-07-29T14:34:17;26.80;12.60
1381;DHT22;684;48.342;10.096;2022-07-29T14:36:45;26.50;13.80
1381;DHT22;684;48.342;10.096;2022-07-29T14:39:12;26.10;15.00
1381;DHT22;684;48.342;10.096;2022-07-29T14:41:41;25.60;16.40
1381;DHT22;684;48.342;10.096;2022-07-29T14:44:07;25.40;16.50
1381;DHT22;684;48.342;10.096;2022-07-29T14:46:35;25.10;16.90
1381;DHT22;684;48.342;10.096;2022-07-29T14:49:01;24.80;17.70
1381;DHT22;684;48.342;10.096;2022-07-29T14:51:28;24.50;19.90
1381;DHT22;684;48.342;10.096;2022-07-29T14:53:56;24.40;21.00
1381;DHT22;684;48.342;10.096;2022-07-29T14:56:23;24.20;20.80
1381;DHT22;684;48.342;10.096;2022-07-29T14:58:50;24.20;21.20
1381;DHT22;684;48.342;10.096;2022-07-29T15:01:17;24.10;21.50
1381;DHT22;684;48.342;10.096;2022-07-29T15:03:43;24.00;22.70
1381;DHT22;684;48.342;10.096;2022-07-29T15:06:11;23.90;22.80
1381;DHT22;684;48.342;10.096;2022-07-29T15:08:38;23.90;21.50
1381;DHT22;684;48.342;10.096;2022-07-29T15:11:06;23.60;22.40
1381;DHT22;684;48.342;10.096;2022-07-29T15:13:33;23.50;23.00
1381;DHT22;684;48.342;10.096;2022-07-29T15:16:00;23.40;22.90
1381;DHT22;684;48.342;10.096;2022-07-29T15:18:27;23.30;23.60
1381;DHT22;684;48.342;10.096;2022-07-29T15:20:53;23.10;24.30
1381;DHT22;684;48.342;10.096;2022-07-29T15:23:20;23.00;24.40
1381;DHT22;684;48.342;10.096;2022-07-29T15:25:47;22.90;25.20
1381;DHT22;684;48.342;10.096;2022-07-29T15:28:15;22.80;25.60
1381;DHT22;684;48.342;10.096;2022-07-29T15:30:42;22.80;25.50
1381;DHT22;684;48.342;10.096;2022-07-29T15:33:09;22.60;25.90
1381;DHT22;684;48.342;10.096;2022-07-29T15:35:37;22.60;27.10
1381;DHT22;684;48.342;10.096;2022-07-29T15:38:04;22.60;27.60
1381;DHT22;684;48.342;10.096;2022-07-29T15:40:31;22.50;27.50
1381;DHT22;684;48.342;10.096;2022-07-29T15:42:57;22.50;27.40
1381;DHT22;684;48.342;10.096;2022-07-29T15:45:35;22.30;27.50
1381;DHT22;684;48.342;10.096;2022-07-29T15:48:04;22.20;28.10
1381;DHT22;684;48.342;10.096;2022-07-29T15:50:31;22.10;28.90
1381;DHT22;684;48.342;10.096;2022-07-29T15:52:58;22.00;29.80
1381;DHT22;684;48.342;10.096;2022-07-29T15:55:25;22.00;30.20
1381;DHT22;684;48.342;10.096;2022-07-29T15:57:51;21.90;30.60
1381;DHT22;684;48.342;10.096;2022-07-29T16:00:18;21.90;30.30
1381;DHT22;684;48.342;10.096;2022-07-29T16:02:48;21.90;30.20
1381;DHT22;684;48.342;10.096;2022-07-29T16:05:15;21.90;30.60
1381;DHT22;684;48.342;10.096;2022-07-29T16:07:42;21.80;31.40
1381;DHT22;684;48.342;10.096;2022-07-29T16:10:09;21.80;31.40
1381;DHT22;684;48.342;10.096;2022-07-29T16:12:35;21.80;32.00
1381;DHT22;684;48.342;10.096;2022-07-29T16:15:03;21.90;31.70
1381;DHT22;684;48.342;10.096;2022-07-29T16:17:30;21.90;31.40
1381;DHT22;684;48.342;10.096;2022-07-29T16:19:58;21.80;31.30
1381;DHT22;684;48.342;10.096;2022-07-29T16:22:24;21.90;31.70